sensor_id;sensor_type;location;lat;lon;timestamp;P1;durP1;ratioP1;P2;durP2;ratioP2
34673;SDS011;20879;55.668;37.858;2023-06-14T00:02:35;11.73;;;5.30;;
34673;SDS011;20879;55.668;37.858;2023-06-14T00:05:07;12.32;;;5.70;;
34673;SDS011;20879;55.668;37.858;2023-06-14T00:07:43;16.17;;;5.20;;
34673;SDS011;20879;55.668;37.858;2023-06-14T00:10:15;9.18;;;5.13;;
34673;SDS011;20879;55.668;37.858;2023-06-14T00:12:49;11.13;;;5.05;;
34673;SDS011;20879;55.668;37.858;2023-06-14T00:15:18;13.57;;;5.68;;
34673;SDS011;20879;55.668;37.858;2023-06-14T00:17:50;15.20;;;6.18;;
34673;SDS011;20879;55.668;37.858;2023-06-14T00:20:21;13.63;;;5.88;;
34673;SDS011;20879;55.668;37.858;2023-06-14T00:22:56;12.57;;;5.45;;
34673;SDS011;20879;55.668;37.858;2023-06-14T00:25:26;12.40;;;5.93;;
34673;SDS011;20879;55.668;37.858;2023-06-14T00:28:02;11.20;;;6.13;;
34673;SDS011;20879;55.668;37.858;2023-06-14T00:30:34;15.88;;;6.30;;
34673;SDS011;20879;55.668;37.858;2023-06-14T00:33:04;14.50;;;6.40;;
34673;SDS011;20879;55.668;37.858;2023-06-14T00:35:40;14.68;;;5.65;;
34673;SDS011;20879;55.668;37.858;2023-06-14T00:38:10;13.55;;;5.85;;
34673;SDS011;20879;55.668;37.858;2023-06-14T00:40:44;11.23;;;5.80;;
34673;SDS011;20879;55.668;37.858;2023-06-14T00:43:13;9.90;;;6.05;;
34673;SDS011;20879;55.668;37.858;2023-06-14T00:45:43;13.25;;;7.07;;
34673;SDS011;20879;55.668;37.858;2023-06-14T00:48:18;10.77;;;5.32;;
34673;SDS011;20879;55.668;37.858;2023-06-14T00:50:51;12.75;;;6.57;;
34673;SDS011;20879;55.668;37.858;2023-06-14T00:53:21;14.70;;;5.68;;
34673;SDS011;20879;55.668;37.858;2023-06-14T00:55:54;11.50;;;5.93;;
34673;SDS011;20879;55.668;37.858;2023-06-14T00:58:30;18.42;;;6.75;;
34673;SDS011;20879;55.668;37.858;2023-06-14T01:01:01;13.63;;;6.28;;
34673;SDS011;20879;55.668;37.858;2023-06-14T01:03:33;12.88;;;6.45;;
34673;SDS011;20879;55.668;37.858;2023-06-14T01:06:08;13.30;;;6.32;;
34673;SDS011;20879;55.668;37.858;2023-06-14T01:08:57;19.90;;;6.88;;
34673;SDS011;20879;55.668;37.858;2023-06-14T01:11:43;20.67;;;6.35;;
34673;SDS011;20879;55.668;37.858;2023-06-14T01:14:18;13.82;;;5.82;;
34673;SDS011;20879;55.668;37.858;2023-06-14T01:16:59;9.30;;;5.22;;
34673;SDS011;20879;55.668;37.858;2023-06-14T01:19:32;15.18;;;6.47;;
34673;SDS011;20879;55.668;37.858;2023-06-14T01:22:04;15.25;;;5.93;;
34673;SDS011;20879;55.668;37.858;2023-06-14T01:24:41;12.48;;;5.65;;
34673;SDS011;20879;55.668;37.858;2023-06-14T01:27:16;13.48;;;6.00;;
34673;SDS011;20879;55.668;37.858;2023-06-14T01:29:54;16.83;;;6.15;;
34673;SDS011;20879;55.668;37.858;2023-06-14T01:32:26;17.80;;;6.57;;
34673;SDS011;20879;55.668;37.858;2023-06-14T01:34:59;17.33;;;6.75;;
34673;SDS011;20879;55.668;37.858;2023-06-14T01:37:36;19.92;;;7.28;;
34673;SDS011;20879;55.668;37.858;2023-06-14T01:40:19;14.70;;;6.88;;
34673;SDS011;20879;55.668;37.858;2023-06-14T01:42:50;17.38;;;7.35;;
34673;SDS011;20879;55.668;37.858;2023-06-14T01:45:21;21.60;;;8.50;;
34673;SDS011;20879;55.668;37.858;2023-06-14T01:47:51;17.10;;;7.70;;
34673;SDS011;20879;55.668;37.858;2023-06-14T01:50:32;20.48;;;7.50;;
34673;SDS011;20879;55.668;37.858;2023-06-14T01:53:05;19.30;;;7.60;;
34673;SDS011;20879;55.668;37.858;2023-06-14T01:55:42;20.75;;;8.23;;
34673;SDS011;20879;55.668;37.858;2023-06-14T01:58:15;21.95;;;9.75;;
34673;SDS011;20879;55.668;37.858;2023-06-14T02:00:50;19.83;;;8.45;;
34673;SDS011;20879;55.668;37.858;2023-06-14T02:03:21;24.13;;;9.05;;
34673;SDS011;20879;55.668;37.858;2023-06-14T02:05:52;19.00;;;8.10;;
34673;SDS011;20879;55.668;37.858;2023-06-14T02:08:21;20.70;;;8.02;;
34673;SDS011;20879;55.668;37.858;2023-06-14T02:10:53;20.00;;;8.20;;
34673;SDS011;20879;55.668;37.858;2023-06-14T02:13:23;21.52;;;9.35;;
34673;SDS011;20879;55.668;37.858;2023-06-14T02:15:53;23.95;;;10.20;;
34673;SDS011;20879;55.668;37.858;2023-06-14T02:18:23;19.73;;;9.27;;
34673;SDS011;20879;55.668;37.858;2023-06-14T02:21:15;18.97;;;10.03;;
34673;SDS011;20879;55.668;37.858;2023-06-14T02:23:50;21.75;;;10.02;;
34673;SDS011;20879;55.668;37.858;2023-06-14T02:26:22;22.77;;;9.75;;
34673;SDS011;20879;55.668;37.858;2023-06-14T02:29:00;22.83;;;9.80;;
34673;SDS011;20879;55.668;37.858;2023-06-14T02:31:30;20.02;;;9.38;;
34673;SDS011;20879;55.668;37.858;2023-06-14T02:34:07;22.60;;;8.45;;
34673;SDS011;20879;55.668;37.858;2023-06-14T02:36:37;18.77;;;8.35;;
34673;SDS011;20879;55.668;37.858;2023-06-14T02:39:08;17.17;;;8.60;;
34673;SDS011;20879;55.668;37.858;2023-06-14T02:41:45;17.30;;;9.05;;
34673;SDS011;20879;55.668;37.858;2023-06-14T02:44:15;17.15;;;9.32;;
34673;SDS011;20879;55.668;37.858;2023-06-14T02:46:46;21.38;;;9.48;;
34673;SDS011;20879;55.668;37.858;2023-06-14T02:49:21;21.80;;;9.25;;
34673;SDS011;20879;55.668;37.858;2023-06-14T02:51:56;17.88;;;9.60;;
34673;SDS011;20879;55.668;37.858;2023-06-14T02:54:42;21.55;;;10.27;;
34673;SDS011;20879;55.668;37.858;2023-06-14T02:57:15;20.73;;;10.55;;
34673;SDS011;20879;55.668;37.858;2023-06-14T02:59:44;25.77;;;11.57;;
34673;SDS011;20879;55.668;37.858;2023-06-14T03:02:14;19.77;;;11.05;;
34673;SDS011;20879;55.668;37.858;2023-06-14T03:04:48;21.35;;;12.25;;
34673;SDS011;20879;55.668;37.858;2023-06-14T03:07:19;24.13;;;11.73;;
34673;SDS011;20879;55.668;37.858;2023-06-14T03:09:51;22.80;;;12.30;;
34673;SDS011;20879;55.668;37.858;2023-06-14T03:12:22;22.45;;;12.07;;
34673;SDS011;20879;55.668;37.858;2023-06-14T03:14:59;29.58;;;11.15;;
34673;SDS011;20879;55.668;37.858;2023-06-14T03:17:39;22.42;;;12.05;;
34673;SDS011;20879;55.668;37.858;2023-06-14T03:20:13;26.27;;;12.68;;
34673;SDS011;20879;55.668;37.858;2023-06-14T03:22:49;20.73;;;11.80;;
34673;SDS011;20879;55.668;37.858;2023-06-14T03:25:21;23.63;;;12.40;;
34673;SDS011;20879;55.668;37.858;2023-06-14T03:27:53;22.40;;;13.02;;
34673;SDS011;20879;55.668;37.858;2023-06-14T03:30:23;25.67;;;13.68;;
34673;SDS011;20879;55.668;37.858;2023-06-14T03:32:58;26.63;;;13.43;;
34673;SDS011;20879;55.668;37.858;2023-06-14T03:35:29;28.48;;;13.13;;
34673;SDS011;20879;55.668;37.858;2023-06-14T03:38:00;22.13;;;12.63;;
34673;SDS011;20879;55.668;37.858;2023-06-14T03:40:30;26.73;;;13.88;;
34673;SDS011;20879;55.668;37.858;2023-06-14T03:43:04;22.70;;;13.35;;
34673;SDS011;20879;55.668;37.858;2023-06-14T03:45:34;24.75;;;12.57;;
34673;SDS011;20879;55.668;37.858;2023-06-14T03:48:04;23.80;;;12.90;;
34673;SDS011;20879;55.668;37.858;2023-06-14T03:50:35;23.88;;;12.38;;
34673;SDS011;20879;55.668;37.858;2023-06-14T03:53:06;19.70;;;11.02;;
34673;SDS011;20879;55.668;37.858;2023-06-14T03:55:45;22.33;;;10.77;;
34673;SDS011;20879;55.668;37.858;2023-06-14T03:58:21;22.88;;;10.20;;
34673;SDS011;20879;55.668;37.858;2023-06-14T04:03:30;17.80;;;9.77;;
34673;SDS011;20879;55.668;37.858;2023-06-14T04:06:12;15.38;;;9.00;;
34673;SDS011;20879;55.668;37.858;2023-06-14T04:08:47;17.92;;;8.88;;
34673;SDS011;20879;55.668;37.858;2023-06-14T04:11:17;14.77;;;8.40;;
34673;SDS011;20879;55.668;37.858;2023-06-14T04:14:01;17.02;;;8.98;;
34673;SDS011;20879;55.668;37.858;2023-06-14T04:16:31;16.92;;;9.18;;
34673;SDS011;20879;55.668;37.858;2023-06-14T04:19:00;12.90;;;8.60;;
34673;SDS011;20879;55.668;37.858;2023-06-14T04:21:30;11.70;;;6.95;;
34673;SDS011;20879;55.668;37.858;2023-06-14T04:24:03;13.30;;;7.65;;
34673;SDS011;20879;55.668;37.858;2023-06-14T04:26:33;14.13;;;7.00;;
34673;SDS011;20879;55.668;37.858;2023-06-14T04:29:10;14.95;;;6.53;;
34673;SDS011;20879;55.668;37.858;2023-06-14T04:31:46;12.70;;;6.45;;
34673;SDS011;20879;55.668;37.858;2023-06-14T04:34:21;11.68;;;6.38;;
34673;SDS011;20879;55.668;37.858;2023-06-14T04:36:56;13.65;;;6.10;;
34673;SDS011;20879;55.668;37.858;2023-06-14T04:39:31;18.38;;;6.15;;
34673;SDS011;20879;55.668;37.858;2023-06-14T04:42:02;12.35;;;6.32;;
34673;SDS011;20879;55.668;37.858;2023-06-14T04:44:41;11.43;;;5.97;;
34673;SDS011;20879;55.668;37.858;2023-06-14T04:47:12;12.05;;;6.20;;
34673;SDS011;20879;55.668;37.858;2023-06-14T04:49:43;7.53;;;5.00;;
34673;SDS011;20879;55.668;37.858;2023-06-14T04:52:12;8.05;;;4.80;;
34673;SDS011;20879;55.668;37.858;2023-06-14T04:54:50;9.15;;;4.68;;
34673;SDS011;20879;55.668;37.858;2023-06-14T04:57:22;7.25;;;4.63;;
34673;SDS011;20879;55.668;37.858;2023-06-14T05:00:09;12.93;;;4.90;;
34673;SDS011;20879;55.668;37.858;2023-06-14T05:02:41;7.70;;;4.90;;
34673;SDS011;20879;55.668;37.858;2023-06-14T05:05:17;9.10;;;4.53;;
34673;SDS011;20879;55.668;37.858;2023-06-14T05:07:51;10.60;;;4.47;;
34673;SDS011;20879;55.668;37.858;2023-06-14T05:13:18;10.75;;;4.90;;
34673;SDS011;20879;55.668;37.858;2023-06-14T05:15:57;9.55;;;4.95;;
34673;SDS011;20879;55.668;37.858;2023-06-14T05:18:27;9.60;;;4.68;;
34673;SDS011;20879;55.668;37.858;2023-06-14T05:20:56;8.63;;;4.32;;
34673;SDS011;20879;55.668;37.858;2023-06-14T05:23:26;8.20;;;4.65;;
34673;SDS011;20879;55.668;37.858;2023-06-14T05:25:55;10.00;;;5.13;;
34673;SDS011;20879;55.668;37.858;2023-06-14T05:31:11;13.05;;;4.60;;
34673;SDS011;20879;55.668;37.858;2023-06-14T05:33:46;5.53;;;4.20;;
34673;SDS011;20879;55.668;37.858;2023-06-14T05:36:15;9.23;;;4.65;;
34673;SDS011;20879;55.668;37.858;2023-06-14T05:38:44;9.45;;;5.00;;
34673;SDS011;20879;55.668;37.858;2023-06-14T05:41:14;6.50;;;4.10;;
34673;SDS011;20879;55.668;37.858;2023-06-14T05:43:43;7.18;;;4.13;;
34673;SDS011;20879;55.668;37.858;2023-06-14T05:46:15;11.13;;;4.40;;
34673;SDS011;20879;55.668;37.858;2023-06-14T05:48:48;10.77;;;4.60;;
34673;SDS011;20879;55.668;37.858;2023-06-14T05:51:18;8.95;;;3.85;;
34673;SDS011;20879;55.668;37.858;2023-06-14T05:54:02;8.57;;;3.13;;
34673;SDS011;20879;55.668;37.858;2023-06-14T05:56:37;11.98;;;3.42;;
34673;SDS011;20879;55.668;37.858;2023-06-14T05:59:07;5.05;;;3.15;;
34673;SDS011;20879;55.668;37.858;2023-06-14T06:01:38;6.25;;;3.08;;
34673;SDS011;20879;55.668;37.858;2023-06-14T06:04:13;7.47;;;3.30;;
34673;SDS011;20879;55.668;37.858;2023-06-14T06:06:43;5.47;;;3.30;;
34673;SDS011;20879;55.668;37.858;2023-06-14T06:09:18;9.00;;;3.40;;
34673;SDS011;20879;55.668;37.858;2023-06-14T06:11:53;7.03;;;3.15;;
34673;SDS011;20879;55.668;37.858;2023-06-14T06:17:00;8.82;;;3.28;;
34673;SDS011;20879;55.668;37.858;2023-06-14T06:21:58;7.00;;;3.20;;
34673;SDS011;20879;55.668;37.858;2023-06-14T06:24:28;6.03;;;3.22;;
34673;SDS011;20879;55.668;37.858;2023-06-14T06:26:57;4.38;;;3.05;;
34673;SDS011;20879;55.668;37.858;2023-06-14T06:29:26;7.47;;;3.08;;
34673;SDS011;20879;55.668;37.858;2023-06-14T06:31:56;5.88;;;2.33;;
34673;SDS011;20879;55.668;37.858;2023-06-14T06:37:08;6.93;;;2.50;;
34673;SDS011;20879;55.668;37.858;2023-06-14T06:39:37;5.40;;;2.30;;
34673;SDS011;20879;55.668;37.858;2023-06-14T06:42:07;4.53;;;2.35;;
34673;SDS011;20879;55.668;37.858;2023-06-14T06:44:37;4.60;;;1.92;;
34673;SDS011;20879;55.668;37.858;2023-06-14T06:47:07;4.30;;;2.25;;
34673;SDS011;20879;55.668;37.858;2023-06-14T06:49:39;3.55;;;2.38;;
34673;SDS011;20879;55.668;37.858;2023-06-14T06:52:14;2.45;;;2.25;;
34673;SDS011;20879;55.668;37.858;2023-06-14T06:54:43;7.60;;;2.53;;
34673;SDS011;20879;55.668;37.858;2023-06-14T06:57:13;8.00;;;2.63;;
34673;SDS011;20879;55.668;37.858;2023-06-14T06:59:42;5.55;;;2.63;;
34673;SDS011;20879;55.668;37.858;2023-06-14T07:02:12;5.50;;;2.30;;
34673;SDS011;20879;55.668;37.858;2023-06-14T07:04:43;3.45;;;2.30;;
34673;SDS011;20879;55.668;37.858;2023-06-14T07:07:13;3.03;;;2.30;;
34673;SDS011;20879;55.668;37.858;2023-06-14T07:09:47;4.57;;;2.42;;
34673;SDS011;20879;55.668;37.858;2023-06-14T07:12:18;4.32;;;2.25;;
34673;SDS011;20879;55.668;37.858;2023-06-14T07:14:48;7.75;;;2.65;;
34673;SDS011;20879;55.668;37.858;2023-06-14T07:17:17;6.05;;;2.50;;
34673;SDS011;20879;55.668;37.858;2023-06-14T07:19:49;4.55;;;2.33;;
34673;SDS011;20879;55.668;37.858;2023-06-14T07:22:19;3.83;;;2.35;;
34673;SDS011;20879;55.668;37.858;2023-06-14T07:24:55;4.68;;;2.10;;
34673;SDS011;20879;55.668;37.858;2023-06-14T07:27:30;4.50;;;2.50;;
34673;SDS011;20879;55.668;37.858;2023-06-14T07:32:44;4.97;;;2.70;;
34673;SDS011;20879;55.668;37.858;2023-06-14T07:35:15;7.00;;;3.00;;
34673;SDS011;20879;55.668;37.858;2023-06-14T07:40:14;3.60;;;2.15;;
34673;SDS011;20879;55.668;37.858;2023-06-14T07:42:48;8.38;;;2.70;;
34673;SDS011;20879;55.668;37.858;2023-06-14T07:45:20;7.82;;;2.58;;
34673;SDS011;20879;55.668;37.858;2023-06-14T07:47:49;8.73;;;2.92;;
34673;SDS011;20879;55.668;37.858;2023-06-14T07:50:22;4.63;;;2.67;;
34673;SDS011;20879;55.668;37.858;2023-06-14T07:52:52;7.25;;;2.78;;
34673;SDS011;20879;55.668;37.858;2023-06-14T07:55:27;3.55;;;2.22;;
34673;SDS011;20879;55.668;37.858;2023-06-14T07:58:11;4.00;;;2.55;;
34673;SDS011;20879;55.668;37.858;2023-06-14T08:00:40;8.77;;;2.67;;
34673;SDS011;20879;55.668;37.858;2023-06-14T08:03:10;11.95;;;2.88;;
34673;SDS011;20879;55.668;37.858;2023-06-14T08:05:42;7.55;;;2.70;;
34673;SDS011;20879;55.668;37.858;2023-06-14T08:08:12;8.98;;;2.97;;
34673;SDS011;20879;55.668;37.858;2023-06-14T08:10:41;5.90;;;2.42;;
34673;SDS011;20879;55.668;37.858;2023-06-14T08:13:11;8.23;;;2.97;;
34673;SDS011;20879;55.668;37.858;2023-06-14T08:15:40;6.63;;;2.72;;
34673;SDS011;20879;55.668;37.858;2023-06-14T08:18:10;4.22;;;2.70;;
34673;SDS011;20879;55.668;37.858;2023-06-14T08:20:42;6.25;;;2.90;;
34673;SDS011;20879;55.668;37.858;2023-06-14T08:23:31;6.18;;;2.67;;
34673;SDS011;20879;55.668;37.858;2023-06-14T08:26:07;3.95;;;3.00;;
34673;SDS011;20879;55.668;37.858;2023-06-14T08:28:36;11.15;;;3.00;;
34673;SDS011;20879;55.668;37.858;2023-06-14T08:31:19;7.22;;;2.70;;
34673;SDS011;20879;55.668;37.858;2023-06-14T08:33:48;7.28;;;3.00;;
34673;SDS011;20879;55.668;37.858;2023-06-14T08:36:20;3.35;;;2.30;;
34673;SDS011;20879;55.668;37.858;2023-06-14T08:41:20;5.63;;;3.10;;
34673;SDS011;20879;55.668;37.858;2023-06-14T08:44:00;6.30;;;2.40;;
34673;SDS011;20879;55.668;37.858;2023-06-14T08:46:29;7.63;;;3.15;;
34673;SDS011;20879;55.668;37.858;2023-06-14T08:49:02;9.60;;;3.22;;
34673;SDS011;20879;55.668;37.858;2023-06-14T08:51:35;7.78;;;2.95;;
34673;SDS011;20879;55.668;37.858;2023-06-14T08:54:07;4.82;;;2.95;;
34673;SDS011;20879;55.668;37.858;2023-06-14T08:59:10;6.00;;;2.88;;
34673;SDS011;20879;55.668;37.858;2023-06-14T09:01:41;6.03;;;2.95;;
34673;SDS011;20879;55.668;37.858;2023-06-14T09:04:32;5.05;;;2.63;;
34673;SDS011;20879;55.668;37.858;2023-06-14T09:07:05;5.63;;;2.63;;
34673;SDS011;20879;55.668;37.858;2023-06-14T09:09:38;5.22;;;2.60;;
34673;SDS011;20879;55.668;37.858;2023-06-14T09:12:18;9.18;;;2.92;;
34673;SDS011;20879;55.668;37.858;2023-06-14T09:14:48;4.38;;;2.85;;
34673;SDS011;20879;55.668;37.858;2023-06-14T09:17:18;3.90;;;2.90;;
34673;SDS011;20879;55.668;37.858;2023-06-14T09:19:47;5.05;;;3.13;;
34673;SDS011;20879;55.668;37.858;2023-06-14T09:22:24;6.35;;;3.05;;
34673;SDS011;20879;55.668;37.858;2023-06-14T09:24:54;4.72;;;2.80;;
34673;SDS011;20879;55.668;37.858;2023-06-14T09:27:25;5.03;;;2.53;;
34673;SDS011;20879;55.668;37.858;2023-06-14T09:29:55;6.25;;;2.80;;
34673;SDS011;20879;55.668;37.858;2023-06-14T09:32:25;8.13;;;2.88;;
34673;SDS011;20879;55.668;37.858;2023-06-14T09:34:59;6.95;;;2.97;;
34673;SDS011;20879;55.668;37.858;2023-06-14T09:37:32;5.72;;;2.70;;
34673;SDS011;20879;55.668;37.858;2023-06-14T09:40:10;4.97;;;2.85;;
34673;SDS011;20879;55.668;37.858;2023-06-14T09:42:45;4.72;;;3.08;;
34673;SDS011;20879;55.668;37.858;2023-06-14T09:45:14;5.22;;;3.15;;
34673;SDS011;20879;55.668;37.858;2023-06-14T09:47:54;4.18;;;3.13;;
34673;SDS011;20879;55.668;37.858;2023-06-14T09:50:39;8.77;;;2.90;;
34673;SDS011;20879;55.668;37.858;2023-06-14T09:53:23;6.05;;;3.13;;
34673;SDS011;20879;55.668;37.858;2023-06-14T09:55:54;5.75;;;2.60;;
34673;SDS011;20879;55.668;37.858;2023-06-14T09:58:31;5.45;;;3.42;;
34673;SDS011;20879;55.668;37.858;2023-06-14T10:01:05;6.32;;;3.53;;
34673;SDS011;20879;55.668;37.858;2023-06-14T10:03:40;5.85;;;3.35;;
34673;SDS011;20879;55.668;37.858;2023-06-14T10:06:21;5.80;;;2.80;;
34673;SDS011;20879;55.668;37.858;2023-06-14T10:08:55;6.07;;;3.22;;
34673;SDS011;20879;55.668;37.858;2023-06-14T10:11:26;6.65;;;3.08;;
34673;SDS011;20879;55.668;37.858;2023-06-14T10:13:56;6.50;;;3.17;;
34673;SDS011;20879;55.668;37.858;2023-06-14T10:16:28;6.60;;;3.50;;
34673;SDS011;20879;55.668;37.858;2023-06-14T10:19:03;3.47;;;2.75;;
34673;SDS011;20879;55.668;37.858;2023-06-14T10:21:43;3.80;;;2.63;;
34673;SDS011;20879;55.668;37.858;2023-06-14T10:24:26;9.13;;;2.92;;
34673;SDS011;20879;55.668;37.858;2023-06-14T10:27:00;4.30;;;2.50;;
34673;SDS011;20879;55.668;37.858;2023-06-14T10:29:29;3.20;;;2.70;;
34673;SDS011;20879;55.668;37.858;2023-06-14T10:32:00;10.77;;;3.00;;
34673;SDS011;20879;55.668;37.858;2023-06-14T10:34:38;5.97;;;3.10;;
34673;SDS011;20879;55.668;37.858;2023-06-14T10:37:10;7.07;;;3.20;;
34673;SDS011;20879;55.668;37.858;2023-06-14T10:39:43;5.93;;;2.90;;
34673;SDS011;20879;55.668;37.858;2023-06-14T10:42:19;8.73;;;3.22;;
34673;SDS011;20879;55.668;37.858;2023-06-14T10:44:50;4.45;;;3.20;;
34673;SDS011;20879;55.668;37.858;2023-06-14T10:50:03;6.05;;;2.95;;
34673;SDS011;20879;55.668;37.858;2023-06-14T10:52:34;7.30;;;3.00;;
34673;SDS011;20879;55.668;37.858;2023-06-14T10:55:14;6.75;;;3.00;;
34673;SDS011;20879;55.668;37.858;2023-06-14T10:57:48;4.13;;;3.05;;
34673;SDS011;20879;55.668;37.858;2023-06-14T11:00:23;4.93;;;2.80;;
34673;SDS011;20879;55.668;37.858;2023-06-14T11:06:10;6.75;;;3.05;;
34673;SDS011;20879;55.668;37.858;2023-06-14T11:08:56;7.18;;;3.15;;
34673;SDS011;20879;55.668;37.858;2023-06-14T11:11:50;3.53;;;2.72;;
34673;SDS011;20879;55.668;37.858;2023-06-14T11:14:22;6.13;;;2.70;;
34673;SDS011;20879;55.668;37.858;2023-06-14T11:16:52;4.75;;;2.95;;
34673;SDS011;20879;55.668;37.858;2023-06-14T11:19:26;6.07;;;2.90;;
34673;SDS011;20879;55.668;37.858;2023-06-14T11:21:56;5.97;;;3.00;;
34673;SDS011;20879;55.668;37.858;2023-06-14T11:24:25;6.00;;;3.00;;
34673;SDS011;20879;55.668;37.858;2023-06-14T11:26:57;4.63;;;2.42;;
34673;SDS011;20879;55.668;37.858;2023-06-14T11:31:58;5.88;;;2.40;;
34673;SDS011;20879;55.668;37.858;2023-06-14T11:34:27;6.00;;;3.33;;
34673;SDS011;20879;55.668;37.858;2023-06-14T11:36:57;5.88;;;3.10;;
34673;SDS011;20879;55.668;37.858;2023-06-14T11:39:27;6.07;;;3.13;;
34673;SDS011;20879;55.668;37.858;2023-06-14T11:41:58;4.50;;;2.83;;
34673;SDS011;20879;55.668;37.858;2023-06-14T11:46:56;8.95;;;3.10;;
34673;SDS011;20879;55.668;37.858;2023-06-14T11:49:26;7.70;;;3.30;;
34673;SDS011;20879;55.668;37.858;2023-06-14T11:51:55;5.13;;;2.70;;
34673;SDS011;20879;55.668;37.858;2023-06-14T11:54:25;8.02;;;2.95;;
34673;SDS011;20879;55.668;37.858;2023-06-14T11:56:54;10.23;;;3.10;;
34673;SDS011;20879;55.668;37.858;2023-06-14T11:59:30;4.47;;;2.72;;
34673;SDS011;20879;55.668;37.858;2023-06-14T12:02:00;5.28;;;3.00;;
34673;SDS011;20879;55.668;37.858;2023-06-14T12:04:43;7.25;;;3.08;;
34673;SDS011;20879;55.668;37.858;2023-06-14T12:07:19;6.25;;;3.25;;
34673;SDS011;20879;55.668;37.858;2023-06-14T12:10:08;5.88;;;3.10;;
34673;SDS011;20879;55.668;37.858;2023-06-14T12:12:44;11.57;;;3.25;;
34673;SDS011;20879;55.668;37.858;2023-06-14T12:15:15;7.13;;;2.90;;
34673;SDS011;20879;55.668;37.858;2023-06-14T12:17:47;3.75;;;3.00;;
34673;SDS011;20879;55.668;37.858;2023-06-14T12:20:17;3.45;;;2.85;;
34673;SDS011;20879;55.668;37.858;2023-06-14T12:22:51;5.28;;;3.15;;
34673;SDS011;20879;55.668;37.858;2023-06-14T12:25:23;4.53;;;2.97;;
34673;SDS011;20879;55.668;37.858;2023-06-14T12:27:57;5.45;;;2.85;;
34673;SDS011;20879;55.668;37.858;2023-06-14T12:30:29;5.38;;;3.13;;
34673;SDS011;20879;55.668;37.858;2023-06-14T12:32:59;5.05;;;3.20;;
34673;SDS011;20879;55.668;37.858;2023-06-14T12:35:28;6.80;;;3.15;;
34673;SDS011;20879;55.668;37.858;2023-06-14T12:38:04;8.95;;;3.03;;
34673;SDS011;20879;55.668;37.858;2023-06-14T12:50:51;5.53;;;3.03;;
34673;SDS011;20879;55.668;37.858;2023-06-14T12:53:21;9.80;;;3.10;;
34673;SDS011;20879;55.668;37.858;2023-06-14T12:55:50;5.97;;;2.55;;
34673;SDS011;20879;55.668;37.858;2023-06-14T12:58:24;5.13;;;3.17;;
34673;SDS011;20879;55.668;37.858;2023-06-14T13:00:54;4.78;;;2.90;;
34673;SDS011;20879;55.668;37.858;2023-06-14T13:03:23;3.80;;;2.92;;
34673;SDS011;20879;55.668;37.858;2023-06-14T13:05:55;7.47;;;3.30;;
34673;SDS011;20879;55.668;37.858;2023-06-14T13:08:30;3.85;;;2.80;;
34673;SDS011;20879;55.668;37.858;2023-06-14T13:11:00;5.97;;;3.33;;
34673;SDS011;20879;55.668;37.858;2023-06-14T13:13:30;4.30;;;2.80;;
34673;SDS011;20879;55.668;37.858;2023-06-14T13:16:09;5.00;;;2.97;;
34673;SDS011;20879;55.668;37.858;2023-06-14T13:18:40;8.48;;;3.05;;
34673;SDS011;20879;55.668;37.858;2023-06-14T13:21:17;6.25;;;2.70;;
34673;SDS011;20879;55.668;37.858;2023-06-14T13:23:53;6.15;;;3.03;;
34673;SDS011;20879;55.668;37.858;2023-06-14T13:26:22;7.88;;;3.20;;
34673;SDS011;20879;55.668;37.858;2023-06-14T13:28:56;6.10;;;2.80;;
34673;SDS011;20879;55.668;37.858;2023-06-14T13:31:26;3.22;;;2.58;;
34673;SDS011;20879;55.668;37.858;2023-06-14T13:34:00;3.15;;;2.63;;
34673;SDS011;20879;55.668;37.858;2023-06-14T13:36:33;4.15;;;2.70;;
34673;SDS011;20879;55.668;37.858;2023-06-14T13:39:03;4.50;;;2.70;;
34673;SDS011;20879;55.668;37.858;2023-06-14T13:41:33;7.68;;;3.28;;
34673;SDS011;20879;55.668;37.858;2023-06-14T13:44:02;7.95;;;3.08;;
34673;SDS011;20879;55.668;37.858;2023-06-14T13:46:32;4.53;;;3.08;;
34673;SDS011;20879;55.668;37.858;2023-06-14T13:49:02;4.60;;;2.97;;
34673;SDS011;20879;55.668;37.858;2023-06-14T13:51:36;3.28;;;2.70;;
34673;SDS011;20879;55.668;37.858;2023-06-14T13:54:12;4.80;;;3.00;;
34673;SDS011;20879;55.668;37.858;2023-06-14T13:56:42;4.40;;;2.60;;
34673;SDS011;20879;55.668;37.858;2023-06-14T14:02:01;5.10;;;2.85;;
34673;SDS011;20879;55.668;37.858;2023-06-14T14:04:36;3.97;;;2.70;;
34673;SDS011;20879;55.668;37.858;2023-06-14T14:07:08;7.43;;;3.10;;
34673;SDS011;20879;55.668;37.858;2023-06-14T14:09:42;5.25;;;2.85;;
34673;SDS011;20879;55.668;37.858;2023-06-14T14:12:17;8.65;;;3.03;;
34673;SDS011;20879;55.668;37.858;2023-06-14T14:14:47;5.75;;;2.95;;
34673;SDS011;20879;55.668;37.858;2023-06-14T14:17:17;8.95;;;3.03;;
34673;SDS011;20879;55.668;37.858;2023-06-14T14:19:46;6.90;;;2.92;;
34673;SDS011;20879;55.668;37.858;2023-06-14T14:22:18;4.47;;;2.65;;
34673;SDS011;20879;55.668;37.858;2023-06-14T14:24:50;7.97;;;3.22;;
34673;SDS011;20879;55.668;37.858;2023-06-14T14:27:38;5.15;;;2.47;;
34673;SDS011;20879;55.668;37.858;2023-06-14T14:30:08;5.45;;;2.78;;
34673;SDS011;20879;55.668;37.858;2023-06-14T14:32:40;6.60;;;2.80;;
34673;SDS011;20879;55.668;37.858;2023-06-14T14:35:10;4.03;;;2.70;;
34673;SDS011;20879;55.668;37.858;2023-06-14T14:37:42;6.53;;;2.65;;
34673;SDS011;20879;55.668;37.858;2023-06-14T14:40:12;3.05;;;2.25;;
34673;SDS011;20879;55.668;37.858;2023-06-14T14:42:42;8.23;;;2.73;;
34673;SDS011;20879;55.668;37.858;2023-06-14T14:45:12;3.78;;;2.88;;
34673;SDS011;20879;55.668;37.858;2023-06-14T14:47:46;7.07;;;2.83;;
34673;SDS011;20879;55.668;37.858;2023-06-14T14:50:32;8.40;;;2.70;;
34673;SDS011;20879;55.668;37.858;2023-06-14T14:53:04;9.65;;;2.80;;
34673;SDS011;20879;55.668;37.858;2023-06-14T14:55:34;3.58;;;2.22;;
34673;SDS011;20879;55.668;37.858;2023-06-14T14:58:04;3.47;;;2.40;;
34673;SDS011;20879;55.668;37.858;2023-06-14T15:00:34;5.72;;;2.60;;
34673;SDS011;20879;55.668;37.858;2023-06-14T15:03:32;3.30;;;2.40;;
34673;SDS011;20879;55.668;37.858;2023-06-14T15:06:25;8.07;;;2.97;;
34673;SDS011;20879;55.668;37.858;2023-06-14T15:08:57;6.20;;;2.40;;
34673;SDS011;20879;55.668;37.858;2023-06-14T15:11:27;5.00;;;2.60;;
34673;SDS011;20879;55.668;37.858;2023-06-14T15:13:56;4.65;;;2.45;;
34673;SDS011;20879;55.668;37.858;2023-06-14T15:16:31;3.55;;;2.53;;
34673;SDS011;20879;55.668;37.858;2023-06-14T15:19:12;5.38;;;2.90;;
34673;SDS011;20879;55.668;37.858;2023-06-14T15:21:42;4.38;;;2.38;;
34673;SDS011;20879;55.668;37.858;2023-06-14T15:24:13;3.38;;;2.17;;
34673;SDS011;20879;55.668;37.858;2023-06-14T15:27:00;5.30;;;2.80;;
34673;SDS011;20879;55.668;37.858;2023-06-14T15:29:29;6.10;;;2.88;;
34673;SDS011;20879;55.668;37.858;2023-06-14T15:35:07;5.72;;;3.05;;
34673;SDS011;20879;55.668;37.858;2023-06-14T15:37:36;4.57;;;2.72;;
34673;SDS011;20879;55.668;37.858;2023-06-14T15:40:08;6.40;;;2.92;;
34673;SDS011;20879;55.668;37.858;2023-06-14T15:42:39;4.82;;;3.17;;
34673;SDS011;20879;55.668;37.858;2023-06-14T15:45:14;7.28;;;3.20;;
34673;SDS011;20879;55.668;37.858;2023-06-14T15:47:43;5.05;;;2.90;;
34673;SDS011;20879;55.668;37.858;2023-06-14T15:50:13;3.78;;;3.00;;
34673;SDS011;20879;55.668;37.858;2023-06-14T15:52:43;6.53;;;3.30;;
34673;SDS011;20879;55.668;37.858;2023-06-14T15:55:20;5.25;;;2.70;;
34673;SDS011;20879;55.668;37.858;2023-06-14T15:57:49;8.18;;;2.85;;